sensor_id;sensor_type;location;lat;lon;timestamp;pressure;altitude;pressure_sealevel;temperature;humidity
77881;BME280;67077;50.298;18.996;2023-02-03T00:02:22;98539.41;;;-0.47;74.01
77881;BME280;67077;50.298;18.996;2023-02-03T00:04:51;98543.98;;;-0.48;74.04
77881;BME280;67077;50.298;18.996;2023-02-03T00:07:18;98548.14;;;-0.51;73.96
77881;BME280;67077;50.298;18.996;2023-02-03T00:09:45;98544.90;;;-0.52;73.86
77881;BME280;67077;50.298;18.996;2023-02-03T00:12:12;98539.98;;;-0.49;73.99
77881;BME280;67077;50.298;18.996;2023-02-03T00:14:40;98541.12;;;-0.46;73.89
77881;BME280;67077;50.298;18.996;2023-02-03T00:17:07;98541.83;;;-0.46;73.83
77881;BME280;67077;50.298;18.996;2023-02-03T00:19:34;98537.71;;;-0.47;73.88
77881;BME280;67077;50.298;18.996;2023-02-03T00:22:07;98540.09;;;-0.50;73.78
77881;BME280;67077;50.298;18.996;2023-02-03T00:24:35;98543.98;;;-0.54;73.86
77881;BME280;67077;50.298;18.996;2023-02-03T00:27:03;98544.38;;;-0.54;73.76
77881;BME280;67077;50.298;18.996;2023-02-03T00:29:48;98550.77;;;-0.51;73.74
77881;BME280;67077;50.298;18.996;2023-02-03T00:32:17;98552.27;;;-0.50;73.62
77881;BME280;67077;50.298;18.996;2023-02-03T00:34:45;98556.95;;;-0.50;73.71
77881;BME280;67077;50.298;18.996;2023-02-03T00:37:14;98560.61;;;-0.52;73.74
77881;BME280;67077;50.298;18.996;2023-02-03T00:39:42;98564.30;;;-0.53;73.64
77881;BME280;67077;50.298;18.996;2023-02-03T00:42:10;98565.39;;;-0.56;73.70
77881;BME280;67077;50.298;18.996;2023-02-03T00:44:37;98567.77;;;-0.58;73.48
77881;BME280;67077;50.298;18.996;2023-02-03T00:47:05;98571.20;;;-0.57;73.72
77881;BME280;67077;50.298;18.996;2023-02-03T00:49:33;98571.80;;;-0.52;73.62
77881;BME280;67077;50.298;18.996;2023-02-03T00:52:01;98573.02;;;-0.50;73.21
77881;BME280;67077;50.298;18.996;2023-02-03T00:54:31;98575.90;;;-0.52;72.90
77881;BME280;67077;50.298;18.996;2023-02-03T00:56:58;98568.89;;;-0.57;73.08
77881;BME280;67077;50.298;18.996;2023-02-03T00:59:26;98567.91;;;-0.63;73.04
77881;BME280;67077;50.298;18.996;2023-02-03T01:01:53;98563.18;;;-0.65;73.06
77881;BME280;67077;50.298;18.996;2023-02-03T01:04:23;98559.41;;;-0.63;73.19
77881;BME280;67077;50.298;18.996;2023-02-03T01:06:50;98557.86;;;-0.61;72.90
77881;BME280;67077;50.298;18.996;2023-02-03T01:09:22;98557.73;;;-0.64;72.90
77881;BME280;67077;50.298;18.996;2023-02-03T01:11:50;98553.41;;;-0.66;72.79
77881;BME280;67077;50.298;18.996;2023-02-03T01:14:19;98549.75;;;-0.71;72.77
77881;BME280;67077;50.298;18.996;2023-02-03T01:16:46;98550.16;;;-0.72;72.67
77881;BME280;67077;50.298;18.996;2023-02-03T01:19:13;98545.35;;;-0.69;72.73
77881;BME280;67077;50.298;18.996;2023-02-03T01:21:41;98545.77;;;-0.68;72.67
77881;BME280;67077;50.298;18.996;2023-02-03T01:24:10;98551.11;;;-0.70;72.46
77881;BME280;67077;50.298;18.996;2023-02-03T01:26:38;98552.89;;;-0.73;72.45
77881;BME280;67077;50.298;18.996;2023-02-03T01:29:06;98552.39;;;-0.75;72.22
77881;BME280;67077;50.298;18.996;2023-02-03T01:31:38;98548.59;;;-0.78;72.35
77881;BME280;67077;50.298;18.996;2023-02-03T01:34:13;98546.38;;;-0.81;72.54
77881;BME280;67077;50.298;18.996;2023-02-03T01:36:42;98550.52;;;-0.80;72.70
77881;BME280;67077;50.298;18.996;2023-02-03T01:39:09;98546.05;;;-0.75;72.60
77881;BME280;67077;50.298;18.996;2023-02-03T01:41:38;98548.88;;;-0.71;72.60
77881;BME280;67077;50.298;18.996;2023-02-03T01:44:33;98547.59;;;-0.71;72.59
77881;BME280;67077;50.298;18.996;2023-02-03T01:47:03;98548.12;;;-0.74;72.29
77881;BME280;67077;50.298;18.996;2023-02-03T01:49:35;98544.32;;;-0.79;72.42
77881;BME280;67077;50.298;18.996;2023-02-03T01:52:04;98538.84;;;-0.85;72.66
77881;BME280;67077;50.298;18.996;2023-02-03T01:54:36;98533.84;;;-0.87;72.74
77881;BME280;67077;50.298;18.996;2023-02-03T01:57:11;98535.70;;;-0.84;72.67
77881;BME280;67077;50.298;18.996;2023-02-03T01:59:39;98536.86;;;-0.83;72.43
77881;BME280;67077;50.298;18.996;2023-02-03T02:02:07;98538.42;;;-0.87;72.37
77881;BME280;67077;50.298;18.996;2023-02-03T02:05:02;98535.94;;;-0.93;72.22
77881;BME280;67077;50.298;18.996;2023-02-03T02:07:33;98531.23;;;-0.99;72.26
77881;BME280;67077;50.298;18.996;2023-02-03T02:10:02;98530.23;;;-1.04;72.58
77881;BME280;67077;50.298;18.996;2023-02-03T02:12:30;98528.41;;;-1.05;72.43
77881;BME280;67077;50.298;18.996;2023-02-03T02:14:57;98526.11;;;-1.03;72.45
77881;BME280;67077;50.298;18.996;2023-02-03T02:18:02;98524.55;;;-1.02;72.24
77881;BME280;67077;50.298;18.996;2023-02-03T02:34:50;98512.32;;;-1.28;72.21
77881;BME280;67077;50.298;18.996;2023-02-03T02:45:49;98493.73;;;-1.45;72.73
77881;BME280;67077;50.298;18.996;2023-02-03T02:48:42;98488.80;;;-1.52;72.87
77881;BME280;67077;50.298;18.996;2023-02-03T02:51:13;98483.95;;;-1.57;72.86
77881;BME280;67077;50.298;18.996;2023-02-03T02:54:00;98478.70;;;-1.61;73.07
77881;BME280;67077;50.298;18.996;2023-02-03T02:56:30;98478.96;;;-1.60;73.17
77881;BME280;67077;50.298;18.996;2023-02-03T02:59:01;98477.25;;;-1.55;73.17
77881;BME280;67077;50.298;18.996;2023-02-03T03:01:30;98478.95;;;-1.50;73.03
77881;BME280;67077;50.298;18.996;2023-02-03T03:04:00;98481.30;;;-1.49;73.18
77881;BME280;67077;50.298;18.996;2023-02-03T03:06:33;98482.95;;;-1.49;73.17
77881;BME280;67077;50.298;18.996;2023-02-03T03:09:09;98486.65;;;-1.51;73.26
77881;BME280;67077;50.298;18.996;2023-02-03T03:12:20;98493.81;;;-1.55;73.44
77881;BME280;67077;50.298;18.996;2023-02-03T03:14:53;98504.73;;;-1.58;73.58
77881;BME280;67077;50.298;18.996;2023-02-03T03:17:27;98510.58;;;-1.56;73.56
77881;BME280;67077;50.298;18.996;2023-02-03T03:22:52;98504.73;;;-1.46;73.32
77881;BME280;67077;50.298;18.996;2023-02-03T03:28:34;98495.23;;;-1.48;73.05
77881;BME280;67077;50.298;18.996;2023-02-03T03:31:03;98495.16;;;-1.52;72.95
77881;BME280;67077;50.298;18.996;2023-02-03T03:33:30;98490.77;;;-1.54;73.06
77881;BME280;67077;50.298;18.996;2023-02-03T03:36:04;98489.23;;;-1.57;73.07
77881;BME280;67077;50.298;18.996;2023-02-03T03:38:41;98487.73;;;-1.56;73.02
77881;BME280;67077;50.298;18.996;2023-02-03T03:41:42;98478.90;;;-1.49;72.86
77881;BME280;67077;50.298;18.996;2023-02-03T03:44:14;98463.23;;;-1.44;72.98
77881;BME280;67077;50.298;18.996;2023-02-03T03:47:00;98458.70;;;-1.43;72.92
77881;BME280;67077;50.298;18.996;2023-02-03T03:49:30;98443.80;;;-1.44;72.83
77881;BME280;67077;50.298;18.996;2023-02-03T03:52:06;98442.41;;;-1.46;72.74
77881;BME280;67077;50.298;18.996;2023-02-03T03:54:36;98441.73;;;-1.51;72.67
77881;BME280;67077;50.298;18.996;2023-02-03T03:57:22;98433.91;;;-1.55;72.56
77881;BME280;67077;50.298;18.996;2023-02-03T03:59:52;98430.96;;;-1.59;72.50
77881;BME280;67077;50.298;18.996;2023-02-03T04:02:21;98431.11;;;-1.64;72.61
77881;BME280;67077;50.298;18.996;2023-02-03T04:04:50;98429.92;;;-1.65;72.56
77881;BME280;67077;50.298;18.996;2023-02-03T04:07:17;98432.67;;;-1.63;72.60
77881;BME280;67077;50.298;18.996;2023-02-03T04:09:45;98434.88;;;-1.59;72.69
77881;BME280;67077;50.298;18.996;2023-02-03T04:12:18;98434.02;;;-1.59;72.40
77881;BME280;67077;50.298;18.996;2023-02-03T04:14:48;98435.23;;;-1.61;72.48
77881;BME280;67077;50.298;18.996;2023-02-03T04:17:15;98435.18;;;-1.63;72.37
77881;BME280;67077;50.298;18.996;2023-02-03T04:19:42;98428.61;;;-1.66;72.74
77881;BME280;67077;50.298;18.996;2023-02-03T04:22:09;98429.76;;;-1.70;72.65
77881;BME280;67077;50.298;18.996;2023-02-03T04:24:36;98430.30;;;-1.74;72.72
77881;BME280;67077;50.298;18.996;2023-02-03T04:27:03;98422.48;;;-1.75;72.64
77881;BME280;67077;50.298;18.996;2023-02-03T04:29:30;98418.67;;;-1.72;72.95
77881;BME280;67077;50.298;18.996;2023-02-03T04:31:57;98412.56;;;-1.71;72.82
77881;BME280;67077;50.298;18.996;2023-02-03T04:34:24;98414.30;;;-1.72;73.00
77881;BME280;67077;50.298;18.996;2023-02-03T04:36:51;98408.06;;;-1.76;73.29
77881;BME280;67077;50.298;18.996;2023-02-03T04:39:17;98408.56;;;-1.79;73.21
77881;BME280;67077;50.298;18.996;2023-02-03T04:41:44;98406.13;;;-1.82;73.44
77881;BME280;67077;50.298;18.996;2023-02-03T04:44:11;98402.23;;;-1.84;73.67
77881;BME280;67077;50.298;18.996;2023-02-03T04:46:38;98399.92;;;-1.88;73.64
77881;BME280;67077;50.298;18.996;2023-02-03T04:49:05;98397.16;;;-1.89;73.77
77881;BME280;67077;50.298;18.996;2023-02-03T04:51:32;98393.69;;;-1.83;74.03
77881;BME280;67077;50.298;18.996;2023-02-03T04:53:59;98388.81;;;-1.78;74.14
77881;BME280;67077;50.298;18.996;2023-02-03T04:56:26;98382.59;;;-1.77;74.04
77881;BME280;67077;50.298;18.996;2023-02-03T04:58:53;98381.79;;;-1.78;74.12
77881;BME280;67077;50.298;18.996;2023-02-03T05:01:22;98385.94;;;-1.82;74.13
77881;BME280;67077;50.298;18.996;2023-02-03T05:03:49;98377.59;;;-1.85;74.22
77881;BME280;67077;50.298;18.996;2023-02-03T05:06:16;98368.68;;;-1.88;74.37
77881;BME280;67077;50.298;18.996;2023-02-03T05:08:42;98362.73;;;-1.89;74.44
77881;BME280;67077;50.298;18.996;2023-02-03T05:11:09;98351.20;;;-1.84;74.39
77881;BME280;67077;50.298;18.996;2023-02-03T05:13:36;98347.29;;;-1.78;74.28
77881;BME280;67077;50.298;18.996;2023-02-03T05:16:04;98332.98;;;-1.74;74.20
77881;BME280;67077;50.298;18.996;2023-02-03T05:18:31;98327.71;;;-1.74;74.35
77881;BME280;67077;50.298;18.996;2023-02-03T05:20:58;98326.31;;;-1.76;74.48
77881;BME280;67077;50.298;18.996;2023-02-03T05:23:26;98318.52;;;-1.78;74.37
77881;BME280;67077;50.298;18.996;2023-02-03T05:25:53;98318.86;;;-1.82;74.52
77881;BME280;67077;50.298;18.996;2023-02-03T05:28:19;98315.38;;;-1.85;74.75
77881;BME280;67077;50.298;18.996;2023-02-03T05:30:46;98316.70;;;-1.84;74.67
77881;BME280;67077;50.298;18.996;2023-02-03T05:33:14;98316.05;;;-1.80;74.54
77881;BME280;67077;50.298;18.996;2023-02-03T05:35:42;98315.45;;;-1.77;74.55
77881;BME280;67077;50.298;18.996;2023-02-03T05:38:10;98304.50;;;-1.77;74.73
77881;BME280;67077;50.298;18.996;2023-02-03T05:40:37;98303.14;;;-1.78;74.84
77881;BME280;67077;50.298;18.996;2023-02-03T05:43:24;98298.36;;;-1.82;74.86
77881;BME280;67077;50.298;18.996;2023-02-03T05:45:51;98301.80;;;-1.83;74.97
77881;BME280;67077;50.298;18.996;2023-02-03T05:48:19;98301.63;;;-1.81;74.95
77881;BME280;67077;50.298;18.996;2023-02-03T05:50:46;98297.00;;;-1.76;74.92
77881;BME280;67077;50.298;18.996;2023-02-03T05:53:13;98290.06;;;-1.74;74.93
77881;BME280;67077;50.298;18.996;2023-02-03T05:55:40;98282.24;;;-1.73;74.73
77881;BME280;67077;50.298;18.996;2023-02-03T05:58:07;98282.05;;;-1.75;74.90
77881;BME280;67077;50.298;18.996;2023-02-03T06:00:34;98278.17;;;-1.77;74.92
77881;BME280;67077;50.298;18.996;2023-02-03T06:03:02;98275.86;;;-1.79;75.01
77881;BME280;67077;50.298;18.996;2023-02-03T06:05:32;98276.58;;;-1.82;75.00
77881;BME280;67077;50.298;18.996;2023-02-03T06:08:00;98271.27;;;-1.79;74.81
77881;BME280;67077;50.298;18.996;2023-02-03T06:10:27;98270.86;;;-1.73;75.01
77881;BME280;67077;50.298;18.996;2023-02-03T06:12:54;98262.35;;;-1.68;74.74
77881;BME280;67077;50.298;18.996;2023-02-03T06:15:23;98255.36;;;-1.67;74.73
77881;BME280;67077;50.298;18.996;2023-02-03T06:18:00;98255.94;;;-1.68;74.69
77881;BME280;67077;50.298;18.996;2023-02-03T06:20:28;98254.19;;;-1.67;74.63
77881;BME280;67077;50.298;18.996;2023-02-03T06:22:56;98252.35;;;-1.69;74.68
77881;BME280;67077;50.298;18.996;2023-02-03T06:25:23;98247.52;;;-1.70;74.51
77881;BME280;67077;50.298;18.996;2023-02-03T06:27:50;98249.50;;;-1.71;74.40
77881;BME280;67077;50.298;18.996;2023-02-03T06:30:19;98246.77;;;-1.68;74.50
77881;BME280;67077;50.298;18.996;2023-02-03T06:32:47;98245.42;;;-1.63;74.38
77881;BME280;67077;50.298;18.996;2023-02-03T06:35:15;98244.19;;;-1.63;74.23
77881;BME280;67077;50.298;18.996;2023-02-03T06:37:42;98240.77;;;-1.64;73.96
77881;BME280;67077;50.298;18.996;2023-02-03T06:40:10;98235.77;;;-1.63;74.08
77881;BME280;67077;50.298;18.996;2023-02-03T06:42:38;98229.21;;;-1.65;73.92
77881;BME280;67077;50.298;18.996;2023-02-03T06:45:05;98227.27;;;-1.61;73.91
77881;BME280;67077;50.298;18.996;2023-02-03T06:47:32;98222.81;;;-1.55;73.82
77881;BME280;67077;50.298;18.996;2023-02-03T06:49:59;98216.08;;;-1.51;73.74
77881;BME280;67077;50.298;18.996;2023-02-03T06:52:25;98213.23;;;-1.49;73.47
77881;BME280;67077;50.298;18.996;2023-02-03T06:54:52;98206.23;;;-1.52;73.25
77881;BME280;67077;50.298;18.996;2023-02-03T06:57:19;98204.89;;;-1.52;73.18
77881;BME280;67077;50.298;18.996;2023-02-03T06:59:48;98205.14;;;-1.53;72.96
77881;BME280;67077;50.298;18.996;2023-02-03T07:02:15;98205.46;;;-1.53;72.80
77881;BME280;67077;50.298;18.996;2023-02-03T07:04:42;98198.98;;;-1.46;72.59
77881;BME280;67077;50.298;18.996;2023-02-03T07:07:11;98198.41;;;-1.42;72.34
77881;BME280;67077;50.298;18.996;2023-02-03T07:09:39;98191.18;;;-1.40;72.06
77881;BME280;67077;50.298;18.996;2023-02-03T07:12:07;98183.73;;;-1.40;71.89
77881;BME280;67077;50.298;18.996;2023-02-03T07:14:34;98177.23;;;-1.40;71.65
77881;BME280;67077;50.298;18.996;2023-02-03T07:17:02;98173.13;;;-1.39;71.62
77881;BME280;67077;50.298;18.996;2023-02-03T07:19:28;98173.70;;;-1.38;71.68
77881;BME280;67077;50.298;18.996;2023-02-03T07:21:55;98168.05;;;-1.32;71.37
77881;BME280;67077;50.298;18.996;2023-02-03T07:24:22;98160.52;;;-1.28;70.70
77881;BME280;67077;50.298;18.996;2023-02-03T07:26:48;98159.90;;;-1.25;70.78
77881;BME280;67077;50.298;18.996;2023-02-03T07:29:15;98158.38;;;-1.22;70.65
77881;BME280;67077;50.298;18.996;2023-02-03T07:31:42;98158.56;;;-1.20;70.52
77881;BME280;67077;50.298;18.996;2023-02-03T07:34:08;98155.60;;;-1.18;70.44
77881;BME280;67077;50.298;18.996;2023-02-03T07:36:35;98152.11;;;-1.17;70.25
77881;BME280;67077;50.298;18.996;2023-02-03T07:39:02;98152.41;;;-1.13;70.01
77881;BME280;67077;50.298;18.996;2023-02-03T07:41:29;98147.61;;;-1.07;69.90
77881;BME280;67077;50.298;18.996;2023-02-03T07:43:56;98147.25;;;-1.05;69.69
77881;BME280;67077;50.298;18.996;2023-02-03T07:46:23;98141.73;;;-1.02;69.63
77881;BME280;67077;50.298;18.996;2023-02-03T07:48:50;98139.90;;;-1.04;69.43
77881;BME280;67077;50.298;18.996;2023-02-03T07:51:16;98132.27;;;-1.04;69.44
77881;BME280;67077;50.298;18.996;2023-02-03T07:53:44;98127.29;;;-1.01;69.51
77881;BME280;67077;50.298;18.996;2023-02-03T07:56:11;98122.34;;;-1.00;69.52
77881;BME280;67077;50.298;18.996;2023-02-03T07:58:38;98115.55;;;-0.93;69.49
77881;BME280;67077;50.298;18.996;2023-02-03T08:01:11;98111.42;;;-0.87;69.22
77881;BME280;67077;50.298;18.996;2023-02-03T08:03:39;98109.30;;;-0.82;69.26
77881;BME280;67077;50.298;18.996;2023-02-03T08:06:07;98105.98;;;-0.77;69.04
77881;BME280;67077;50.298;18.996;2023-02-03T08:08:35;98098.60;;;-0.73;68.93
77881;BME280;67077;50.298;18.996;2023-02-03T08:11:02;98094.89;;;-0.70;69.10
77881;BME280;67077;50.298;18.996;2023-02-03T08:13:29;98092.40;;;-0.63;69.13
77881;BME280;67077;50.298;18.996;2023-02-03T08:15:56;98090.47;;;-0.55;68.81
77881;BME280;67077;50.298;18.996;2023-02-03T08:18:22;98085.88;;;-0.46;68.69
77881;BME280;67077;50.298;18.996;2023-02-03T08:20:49;98077.25;;;-0.38;68.35
77881;BME280;67077;50.298;18.996;2023-02-03T08:23:16;98072.71;;;-0.33;68.22
77881;BME280;67077;50.298;18.996;2023-02-03T08:25:42;98068.23;;;-0.31;68.77
77881;BME280;67077;50.298;18.996;2023-02-03T08:28:09;98071.42;;;-0.27;68.63
77881;BME280;67077;50.298;18.996;2023-02-03T08:30:37;98069.91;;;-0.24;68.45
77881;BME280;67077;50.298;18.996;2023-02-03T08:33:03;98062.02;;;-0.22;68.41
77881;BME280;67077;50.298;18.996;2023-02-03T08:35:30;98057.02;;;-0.18;68.65
77881;BME280;67077;50.298;18.996;2023-02-03T08:37:57;98053.33;;;-0.06;68.49
77881;BME280;67077;50.298;18.996;2023-02-03T08:40:24;98055.16;;;0.05;68.08
77881;BME280;67077;50.298;18.996;2023-02-03T08:42:50;98048.21;;;0.09;67.94
77881;BME280;67077;50.298;18.996;2023-02-03T08:45:17;98038.94;;;0.07;68.54
77881;BME280;67077;50.298;18.996;2023-02-03T08:47:43;98034.14;;;0.06;68.84
77881;BME280;67077;50.298;18.996;2023-02-03T08:50:10;98030.02;;;0.06;69.34
77881;BME280;67077;50.298;18.996;2023-02-03T08:52:37;98029.23;;;0.07;69.69
77881;BME280;67077;50.298;18.996;2023-02-03T08:55:04;98031.02;;;0.12;70.55
77881;BME280;67077;50.298;18.996;2023-02-03T08:57:34;98031.21;;;0.15;70.73
77881;BME280;67077;50.298;18.996;2023-02-03T09:00:03;98027.67;;;0.15;71.82
77881;BME280;67077;50.298;18.996;2023-02-03T09:02:31;98027.02;;;0.09;72.69
77881;BME280;67077;50.298;18.996;2023-02-03T09:05:01;98021.65;;;0.01;73.76
77881;BME280;67077;50.298;18.996;2023-02-03T09:07:27;98014.50;;;-0.04;74.46
77881;BME280;67077;50.298;18.996;2023-02-03T09:09:54;98001.80;;;-0.01;75.12
77881;BME280;67077;50.298;18.996;2023-02-03T09:12:21;97995.86;;;0.01;75.40
77881;BME280;67077;50.298;18.996;2023-02-03T09:14:48;97999.20;;;0.01;75.92
77881;BME280;67077;50.298;18.996;2023-02-03T09:17:15;97986.39;;;-0.04;76.36
77881;BME280;67077;50.298;18.996;2023-02-03T09:19:42;97977.98;;;-0.12;76.65
77881;BME280;67077;50.298;18.996;2023-02-03T09:22:08;97973.27;;;-0.20;77.07
77881;BME280;67077;50.298;18.996;2023-02-03T09:24:35;97967.23;;;-0.19;77.21
77881;BME280;67077;50.298;18.996;2023-02-03T09:27:01;97959.14;;;-0.17;77.46
77881;BME280;67077;50.298;18.996;2023-02-03T09:29:28;97959.61;;;-0.16;77.80
77881;BME280;67077;50.298;18.996;2023-02-03T09:31:55;97955.67;;;-0.18;78.14
77881;BME280;67077;50.298;18.996;2023-02-03T09:34:21;97946.62;;;-0.22;78.20
77881;BME280;67077;50.298;18.996;2023-02-03T09:36:49;97938.98;;;-0.19;78.13
77881;BME280;67077;50.298;18.996;2023-02-03T09:39:16;97930.34;;;-0.12;78.33
77881;BME280;67077;50.298;18.996;2023-02-03T09:47:35;97890.13;;;-0.15;78.62
77881;BME280;67077;50.298;18.996;2023-02-03T09:50:06;97889.63;;;-0.17;78.89
77881;BME280;67077;50.298;18.996;2023-02-03T09:52:37;97880.23;;;-0.19;79.20
77881;BME280;67077;50.298;18.996;2023-02-03T09:55:35;97871.48;;;-0.18;79.31
77881;BME280;67077;50.298;18.996;2023-02-03T09:58:14;97861.99;;;-0.16;79.55
77881;BME280;67077;50.298;18.996;2023-02-03T10:00:45;97853.05;;;-0.15;79.57
77881;BME280;67077;50.298;18.996;2023-02-03T10:17:15;97789.48;;;-0.23;80.35
77881;BME280;67077;50.298;18.996;2023-02-03T10:19:49;97781.36;;;-0.17;80.54
77881;BME280;67077;50.298;18.996;2023-02-03T10:22:17;97772.86;;;-0.15;80.76
77881;BME280;67077;50.298;18.996;2023-02-03T10:24:59;97764.58;;;-0.15;80.76
77881;BME280;67077;50.298;18.996;2023-02-03T10:27:28;97759.98;;;-0.17;81.11
77881;BME280;67077;50.298;18.996;2023-02-03T10:30:03;97751.02;;;-0.16;81.02
77881;BME280;67077;50.298;18.996;2023-02-03T10:32:38;97747.64;;;-0.14;81.20
77881;BME280;67077;50.298;18.996;2023-02-03T10:35:12;97741.89;;;-0.17;81.12
77881;BME280;67077;50.298;18.996;2023-02-03T10:37:49;97728.77;;;-0.20;81.18
77881;BME280;67077;50.298;18.996;2023-02-03T10:40:18;97719.53;;;-0.23;81.54
77881;BME280;67077;50.298;18.996;2023-02-03T10:42:50;97716.45;;;-0.19;81.52
77881;BME280;67077;50.298;18.996;2023-02-03T10:45:37;97711.54;;;-0.16;81.65
77881;BME280;67077;50.298;18.996;2023-02-03T10:48:05;97703.95;;;-0.16;81.53
77881;BME280;67077;50.298;18.996;2023-02-03T10:50:45;97692.17;;;-0.16;81.62
77881;BME280;67077;50.298;18.996;2023-02-03T10:53:36;97685.05;;;-0.13;81.81
77881;BME280;67077;50.298;18.996;2023-02-03T10:56:15;97674.70;;;-0.08;81.85
77881;BME280;67077;50.298;18.996;2023-02-03T10:58:57;97666.23;;;-0.05;81.58
77881;BME280;67077;50.298;18.996;2023-02-03T11:01:27;97659.28;;;-0.04;81.98
77881;BME280;67077;50.298;18.996;2023-02-03T11:04:05;97648.23;;;-0.04;82.21
77881;BME280;67077;50.298;18.996;2023-02-03T11:06:33;97635.33;;;-0.01;81.90
77881;BME280;67077;50.298;18.996;2023-02-03T11:09:21;97628.79;;;0.03;81.82
77881;BME280;67077;50.298;18.996;2023-02-03T11:15:00;97611.15;;;0.00;81.90
77881;BME280;67077;50.298;18.996;2023-02-03T11:17:34;97603.17;;;0.01;82.10
77881;BME280;67077;50.298;18.996;2023-02-03T11:20:14;97595.11;;;-0.00;82.04
77881;BME280;67077;50.298;18.996;2023-02-03T11:22:43;97587.95;;;-0.04;82.12
77881;BME280;67077;50.298;18.996;2023-02-03T11:25:24;97578.52;;;-0.03;82.24
77881;BME280;67077;50.298;18.996;2023-02-03T11:28:03;97567.52;;;0.01;82.38
77881;BME280;67077;50.298;18.996;2023-02-03T11:30:32;97552.98;;;0.01;82.42
77881;BME280;67077;50.298;18.996;2023-02-03T11:33:02;97542.35;;;0.01;82.51
77881;BME280;67077;50.298;18.996;2023-02-03T11:35:56;97535.45;;;-0.01;82.50
77881;BME280;67077;50.298;18.996;2023-02-03T11:38:33;97523.14;;;0.04;82.59
77881;BME280;67077;50.298;18.996;2023-02-03T11:41:04;97517.30;;;0.04;82.64
77881;BME280;67077;50.298;18.996;2023-02-03T11:43:30;97508.30;;;0.02;82.59
77881;BME280;67077;50.298;18.996;2023-02-03T11:46:03;97503.34;;;-0.02;82.85
77881;BME280;67077;50.298;18.996;2023-02-03T11:48:38;97500.74;;;-0.01;82.82
77881;BME280;67077;50.298;18.996;2023-02-03T12:25:36;97374.38;;;0.42;83.94
77881;BME280;67077;50.298;18.996;2023-02-03T12:30:52;97361.57;;;0.46;84.13
77881;BME280;67077;50.298;18.996;2023-02-03T12:33:32;97350.91;;;0.43;84.13
77881;BME280;67077;50.298;18.996;2023-02-03T12:36:08;97351.20;;;0.45;84.31
77881;BME280;67077;50.298;18.996;2023-02-03T12:38:52;97337.70;;;0.49;84.33
77881;BME280;67077;50.298;18.996;2023-02-03T12:41:27;97322.18;;;0.49;84.51
77881;BME280;67077;50.298;18.996;2023-02-03T12:44:07;97315.40;;;0.48;84.50
77881;BME280;67077;50.298;18.996;2023-02-03T12:46:49;97307.92;;;0.49;84.41
77881;BME280;67077;50.298;18.996;2023-02-03T12:49:37;97302.59;;;0.52;84.61
77881;BME280;67077;50.298;18.996;2023-02-03T12:52:17;97302.02;;;0.52;84.86
77881;BME280;67077;50.298;18.996;2023-02-03T12:54:55;97299.92;;;0.49;85.06
77881;BME280;67077;50.298;18.996;2023-02-03T12:57:32;97290.47;;;0.46;84.80
77881;BME280;67077;50.298;18.996;2023-02-03T13:02:31;97281.05;;;0.48;84.92
77881;BME280;67077;50.298;18.996;2023-02-03T13:05:08;97275.83;;;0.44;84.97
77881;BME280;67077;50.298;18.996;2023-02-03T13:07:51;97267.86;;;0.39;85.15
77881;BME280;67077;50.298;18.996;2023-02-03T13:10:32;97265.90;;;0.39;85.08
77881;BME280;67077;50.298;18.996;2023-02-03T13:13:03;97259.40;;;0.42;84.95
77881;BME280;67077;50.298;18.996;2023-02-03T13:15:37;97249.98;;;0.42;85.12
77881;BME280;67077;50.298;18.996;2023-02-03T13:20:52;97218.80;;;0.33;85.28
77881;BME280;67077;50.298;18.996;2023-02-03T13:23:21;97218.58;;;0.30;85.45
77881;BME280;67077;50.298;18.996;2023-02-03T13:31:51;97189.16;;;0.20;86.30
77881;BME280;67077;50.298;18.996;2023-02-03T13:34:40;97176.23;;;0.21;86.23
77881;BME280;67077;50.298;18.996;2023-02-03T13:43:13;97158.35;;;0.15;86.72
77881;BME280;67077;50.298;18.996;2023-02-03T13:45:44;97145.69;;;0.17;86.90
77881;BME280;67077;50.298;18.996;2023-02-03T13:48:19;97145.66;;;0.16;86.93
77881;BME280;67077;50.298;18.996;2023-02-03T13:50:49;97135.80;;;0.15;86.89
77881;BME280;67077;50.298;18.996;2023-02-03T13:53:20;97130.54;;;0.18;87.14
77881;BME280;67077;50.298;18.996;2023-02-03T13:55:54;97125.70;;;0.22;87.25
77881;BME280;67077;50.298;18.996;2023-02-03T13:58:28;97127.23;;;0.24;87.10
77881;BME280;67077;50.298;18.996;2023-02-03T14:05:56;97109.39;;;0.28;86.90
77881;BME280;67077;50.298;18.996;2023-02-03T14:16:34;97086.33;;;0.34;86.90
77881;BME280;67077;50.298;18.996;2023-02-03T14:19:03;97072.70;;;0.37;87.05
77881;BME280;67077;50.298;18.996;2023-02-03T14:21:45;97073.32;;;0.36;86.78
77881;BME280;67077;50.298;18.996;2023-02-03T14:24:18;97061.37;;;0.38;87.01
77881;BME280;67077;50.298;18.996;2023-02-03T14:26:51;97052.11;;;0.40;87.20
77881;BME280;67077;50.298;18.996;2023-02-03T14:29:30;97045.08;;;0.41;86.86
77881;BME280;67077;50.298;18.996;2023-02-03T14:34:37;97035.46;;;0.40;86.85
77881;BME280;67077;50.298;18.996;2023-02-03T14:37:22;97035.38;;;0.44;86.81
77881;BME280;67077;50.298;18.996;2023-02-03T14:43:04;97030.51;;;0.43;86.75
77881;BME280;67077;50.298;18.996;2023-02-03T14:51:50;97038.89;;;0.56;86.88
77881;BME280;67077;50.298;18.996;2023-02-03T14:57:43;97051.89;;;0.58;86.75
77881;BME280;67077;50.298;18.996;2023-02-03T15:05:43;97055.85;;;0.61;86.78
77881;BME280;67077;50.298;18.996;2023-02-03T15:11:25;97058.83;;;0.65;86.65
77881;BME280;67077;50.298;18.996;2023-02-03T15:13:54;97071.38;;;0.66;86.80
77881;BME280;67077;50.298;18.996;2023-02-03T15:16:23;97073.31;;;0.65;86.88
77881;BME280;67077;50.298;18.996;2023-02-03T15:18:56;97075.40;;;0.65;86.76
77881;BME280;67077;50.298;18.996;2023-02-03T15:21:23;97067.75;;;0.68;86.85
77881;BME280;67077;50.298;18.996;2023-02-03T15:23:50;97063.99;;;0.72;86.89
77881;BME280;67077;50.298;18.996;2023-02-03T15:26:20;97061.50;;;0.72;86.93
77881;BME280;67077;50.298;18.996;2023-02-03T15:28:57;97052.68;;;0.70;86.74
77881;BME280;67077;50.298;18.996;2023-02-03T15:34:00;97031.73;;;0.76;86.96
77881;BME280;67077;50.298;18.996;2023-02-03T15:36:43;97040.77;;;0.80;86.82
77881;BME280;67077;50.298;18.996;2023-02-03T15:39:46;97053.46;;;0.81;86.95